Insignia — V7DM2 — position and weather

sailwx.info

Track history (hours):
 
Tides and Currents Weather Stations Pressure Air Temp Water Temp Dewpoint Dewpoint Depression Visibility Wind Speed Wind Dir Waves Ship Positions

Insignia

Last reported at 2018-Feb-14 15:00 UTC. Time now 2018-Feb-19 00:07 UTC.
Position S 28°49' E 032°08'.

Length 180 m; draft 5.9 m.

Type: Passenger vessel. MMSI: 538001663.

Date/timePositionNaut miles runAvg speedWind from/ knotsBaromVisibWave heightAir tempDewpointWater temp
2018-Feb-14 15:00S 28°49' E 032°08'3 3.4
2018-Feb-14 14:05S 28°48' E 032°05'0 0.0
2018-Feb-14 13:59S 28°48' E 032°05'0 0.0
2018-Feb-14 05:35S 28°48' E 032°05'0 0.0
2018-Feb-14 05:11S 28°48' E 032°05'0 0.0
2018-Feb-14 02:25S 28°48' E 032°05'1 2.4
2018-Feb-14 01:58S 28°49' E 032°05'4 7.4
2018-Feb-14 01:27S 28°50' E 032°09'713.3
2018-Feb-14 00:58S 28°56' E 032°13'2411.3
2018-Feb-13 22:50S 29°13' E 031°53'412.7
2018-Feb-13 22:30S 29°16' E 031°50'816.6
2018-Feb-13 22:00S 29°22' E 031°44'817.0
2018-Feb-13 21:30S 29°28' E 031°37'816.9
2018-Feb-13 21:00S 29°33' E 031°29'917.1
2018-Feb-13 20:30S 29°39' E 031°22'816.9
2018-Feb-13 20:00S 29°45' E 031°15'917.4
2018-Feb-13 19:30S 29°50' E 031°07'510.1
2018-Feb-13 19:01S 29°52' E 031°02'0 0.0
2018-Feb-13 18:29S 29°52' E 031°02'0 0.0
2018-Feb-13 17:59S 29°52' E 031°02'0 0.0
2018-Feb-13 17:29S 29°52' E 031°02'0 0.0
2018-Feb-13 16:59S 29°52' E 031°02'0 0.0
2018-Feb-13 16:29S 29°52' E 031°02'0 0.0
2018-Feb-13 15:59S 29°52' E 031°02'0 0.0
2018-Feb-13 15:29S 29°52' E 031°02'0 0.0
2018-Feb-13 14:59S 29°52' E 031°02'0 0.0
2018-Feb-13 14:26S 29°52' E 031°02'0 0.0
2018-Feb-13 13:56S 29°52' E 031°02'0 0.0
2018-Feb-13 13:29S 29°52' E 031°02'0 0.0
2018-Feb-13 12:59S 29°52' E 031°02'0 0.0
2018-Feb-13 12:29S 29°52' E 031°02'0 0.0
2018-Feb-13 11:56S 29°52' E 031°02'0 0.0
2018-Feb-13 11:29S 29°52' E 031°02'0 0.0
2018-Feb-13 10:59S 29°52' E 031°02'0 0.0
2018-Feb-13 10:29S 29°52' E 031°02'0 0.0
2018-Feb-13 09:59S 29°52' E 031°02'0 0.0
2018-Feb-13 09:29S 29°52' E 031°02'0 0.0
2018-Feb-13 08:59S 29°52' E 031°02'0 0.0
2018-Feb-13 08:29S 29°52' E 031°02'0 0.0
2018-Feb-13 07:47S 29°52' E 031°02'0 0.0
2018-Feb-13 07:30S 29°52' E 031°02'1 2.0
2018-Feb-13 07:00S 29°52' E 031°03'4 9.2
2018-Feb-13 06:31S 29°49' E 031°07'612.0
2018-Feb-13 06:00S 29°55' E 031°09'713.2
2018-Feb-13 05:30S 30°01' E 031°05'612.3
2018-Feb-13 05:00S 30°07' E 031°02'612.8
2018-Feb-13 04:30S 30°12' E 030°58'714.9
2018-Feb-13 04:00S 30°18' E 030°53'1018.3
2018-Feb-13 03:28S 30°27' E 030°48'  
Track history (hours):
 
Tides and Currents Weather Stations Pressure Air Temp Water Temp Dewpoint Dewpoint Depression Visibility Wind Speed Wind Dir Waves Ship Positions

Insignia

Last reported at 2018-Feb-14 15:00 UTC. Time now 2018-Feb-19 00:07 UTC.
Position S 28°49' E 032°08'.

Length 180 m; draft 5.9 m.

Type: Passenger vessel. MMSI: 538001663.

Date/timePositionNaut miles runAvg speedWind from/ knotsBaromVisibWave heightAir tempDewpointWater temp
2018-Feb-14 15:00S 28°49' E 032°08'3 3.4
2018-Feb-14 14:05S 28°48' E 032°05'0 0.0
2018-Feb-14 13:59S 28°48' E 032°05'0 0.0
2018-Feb-14 05:35S 28°48' E 032°05'0 0.0
2018-Feb-14 05:11S 28°48' E 032°05'0 0.0
2018-Feb-14 02:25S 28°48' E 032°05'1 2.4
2018-Feb-14 01:58S 28°49' E 032°05'4 7.4
2018-Feb-14 01:27S 28°50' E 032°09'713.3
2018-Feb-14 00:58S 28°56' E 032°13'2411.3
2018-Feb-13 22:50S 29°13' E 031°53'412.7
2018-Feb-13 22:30S 29°16' E 031°50'816.6
2018-Feb-13 22:00S 29°22' E 031°44'817.0
2018-Feb-13 21:30S 29°28' E 031°37'816.9
2018-Feb-13 21:00S 29°33' E 031°29'917.1
2018-Feb-13 20:30S 29°39' E 031°22'816.9
2018-Feb-13 20:00S 29°45' E 031°15'917.4
2018-Feb-13 19:30S 29°50' E 031°07'510.1
2018-Feb-13 19:01S 29°52' E 031°02'0 0.0
2018-Feb-13 18:29S 29°52' E 031°02'0 0.0
2018-Feb-13 17:59S 29°52' E 031°02'0 0.0
2018-Feb-13 17:29S 29°52' E 031°02'0 0.0
2018-Feb-13 16:59S 29°52' E 031°02'0 0.0
2018-Feb-13 16:29S 29°52' E 031°02'0 0.0
2018-Feb-13 15:59S 29°52' E 031°02'0 0.0
2018-Feb-13 15:29S 29°52' E 031°02'0 0.0
2018-Feb-13 14:59S 29°52' E 031°02'0 0.0
2018-Feb-13 14:26S 29°52' E 031°02'0 0.0
2018-Feb-13 13:56S 29°52' E 031°02'0 0.0
2018-Feb-13 13:29S 29°52' E 031°02'0 0.0
2018-Feb-13 12:59S 29°52' E 031°02'0 0.0
2018-Feb-13 12:29S 29°52' E 031°02'0 0.0
2018-Feb-13 11:56S 29°52' E 031°02'0 0.0
2018-Feb-13 11:29S 29°52' E 031°02'0 0.0
2018-Feb-13 10:59S 29°52' E 031°02'0 0.0
2018-Feb-13 10:29S 29°52' E 031°02'0 0.0
2018-Feb-13 09:59S 29°52' E 031°02'0 0.0
2018-Feb-13 09:29S 29°52' E 031°02'0 0.0
2018-Feb-13 08:59S 29°52' E 031°02'0 0.0
2018-Feb-13 08:29S 29°52' E 031°02'0 0.0
2018-Feb-13 07:47S 29°52' E 031°02'0 0.0
2018-Feb-13 07:30S 29°52' E 031°02'1 2.0
2018-Feb-13 07:00S 29°52' E 031°03'4 9.2
2018-Feb-13 06:31S 29°49' E 031°07'612.0
2018-Feb-13 06:00S 29°55' E 031°09'713.2
2018-Feb-13 05:30S 30°01' E 031°05'612.3
2018-Feb-13 05:00S 30°07' E 031°02'612.8
2018-Feb-13 04:30S 30°12' E 030°58'714.9
2018-Feb-13 04:00S 30°18' E 030°53'1018.3
2018-Feb-13 03:28S 30°27' E 030°48'  

Dump ship's entire track history